Urbana, IN

5:25 AM EDT on October 01, 2014 (GMT -0400)
Grissom Air Reserve Base | Change Station
CLOSE
Current Station
Airport
Location: Peru,
Elevation: 810 ft
Nearby Weather Stations

Elev 810 ft 40.65 °N, 86.15 °W | Updated 2 hours ago

Clear
Clear
60 °F
Feels Like 60 °F
N
6
Wind Variable Wind from North

Today
High -- | Low -- °F
--% Chance of Precip.
Yesterday
High -- | Low -- °F
Precip. -- in
7:39 AM 7:24 PM
Waxing Crescent, 45% visible
Pressure 29.95 in
Visibility 6.0 miles
Clouds Overcast 600 ft
Dew Point 60 °F
Humidity 100%
Rainfall 0.00 in
Snow Depth Not available.
UV 0 out of 12
Pollen 3.20 out of 12
Air Quality Not available.
Flu Activity Not available.
METAR KGUS 300658Z AUTO 35005KT 6SM R23/5000FT BR OVC006 15/15 A2995 RMK AO2 SLP141 T01530153 $

More Conditions Fewer Conditions

Pressure 29.95 in
Visibility 6.0 miles
Clouds Overcast 600 ft
Dew Point 60 °F
Humidity 100%
Rainfall 0.00 in
Snow Depth Not available.
UV 0 out of 12
Pollen 3.20 out of 12
Air Quality Not available.
Flu Activity Not available.
METAR KGUS 300658Z AUTO 35005KT 6SM R23/5000FT BR OVC006 15/15 A2995 RMK AO2 SLP141 T01530153 $

More Conditions Fewer Conditions

10-Day Weather Forecast

Almanac

Astronomy

Oct. 01, 2014 Rise Set
Actual Time 7:39 AM EDT 7:24 PM EDT
Civil Twilight 7:12 AM EDT 7:52 PM EDT
Nautical Twilight 6:40 AM EDT 8:23 PM EDT
Astronomical Twilight 6:08 AM EDT 8:56 PM EDT
Moon 2:41 PM EDT No Moon Set
Length of Visible Light 12h 40m
Length of Day
11h 45m
Tomorrow will be 2m 42s shorter.
Waxing Crescent, 45% of the Moon is Illuminated
Today
Waxing Crescent
Oct 1
First Quarter
Oct 8
Full
Oct 15
Last Quarter
Oct 23
New

Today's Extremes

State Highs State Lows

Community

WunderPhotos

Upload Photos

1,757,902 photos uploaded!

WunderBlogs® & News

Nearby

Snow Depth

Station Depth Elevation
No new snow has been reported.

Earthquake Activity

City Distance Mag. Time & Date
No recent earthquake activity has been reported nearby.
Minimum magnitude displayed is 2.5.

Coastal Water Temperatures

Place Temperature
No Stations Reporting

Nearby Weather Stations